createdAt,value
2022-09-27T00:00:59.452Z,7.40
2022-09-27T00:03:26.540Z,7.30
2022-09-27T00:06:01.819Z,7.30
2022-09-27T00:08:28.542Z,7.30
2022-09-27T00:10:59.455Z,7.30
2022-09-27T00:13:26.228Z,7.20
2022-09-27T00:15:58.194Z,7.20
2022-09-27T00:18:25.744Z,7.20
2022-09-27T00:20:52.671Z,7.30
2022-09-27T00:23:19.580Z,7.10
2022-09-27T00:25:55.946Z,7.10
2022-09-27T00:28:22.770Z,7.10
2022-09-27T00:30:50.304Z,7.00
2022-09-27T00:33:18.771Z,7.00
2022-09-27T00:35:46.111Z,7.00
2022-09-27T00:38:13.511Z,7.10
2022-09-27T00:40:40.446Z,7.10
2022-09-27T00:43:16.394Z,7.10
2022-09-27T00:45:47.877Z,7.20
2022-09-27T00:48:18.370Z,7.20
2022-09-27T00:50:49.996Z,7.20
2022-09-27T00:53:22.024Z,7.20
2022-09-27T00:55:54.251Z,7.20
2022-09-27T00:58:24.670Z,7.10
2022-09-27T01:00:55.597Z,7.10
2022-09-27T01:03:28.293Z,7.10
2022-09-27T01:05:58.030Z,7.10
2022-09-27T01:08:24.778Z,7.00
2022-09-27T01:11:02.363Z,6.90
2022-09-27T01:13:37.924Z,6.80
2022-09-27T01:16:12.874Z,6.80
2022-09-27T01:18:53.139Z,6.90
2022-09-27T01:21:44.583Z,6.90
2022-09-27T01:24:40.703Z,7.00
2022-09-27T01:27:54.995Z,6.90
2022-09-27T01:30:26.810Z,7.00
2022-09-27T01:33:14.473Z,6.90
2022-09-27T01:35:54.811Z,6.90
2022-09-27T01:38:30.033Z,6.90
2022-09-27T01:41:04.338Z,6.90
2022-09-27T01:43:36.393Z,7.00
2022-09-27T01:46:08.748Z,7.00
2022-09-27T01:48:41.560Z,7.10
2022-09-27T01:51:14.365Z,7.00
2022-09-27T01:53:43.553Z,6.90
2022-09-27T01:56:16.795Z,6.90
2022-09-27T01:58:49.536Z,6.90
2022-09-27T02:01:20.117Z,7.00
2022-09-27T02:03:50.642Z,6.90
2022-09-27T02:06:22.118Z,6.80
2022-09-27T02:08:52.640Z,6.80
2022-09-27T02:11:20.017Z,6.80
2022-09-27T02:13:52.561Z,6.70
2022-09-27T02:16:29.077Z,6.60
2022-09-27T02:19:07.926Z,6.50
2022-09-27T02:21:42.624Z,6.50
2022-09-27T02:24:13.780Z,6.60
2022-09-27T02:26:45.190Z,6.40
2022-09-27T02:29:16.438Z,6.50
2022-09-27T02:31:45.335Z,6.40
2022-09-27T02:34:16.919Z,6.40
2022-09-27T02:36:44.623Z,6.40
2022-09-27T02:39:11.532Z,6.30
2022-09-27T02:41:38.267Z,6.40
2022-09-27T02:44:08.679Z,6.30
2022-09-27T02:47:15.088Z,6.20
2022-09-27T02:49:56.680Z,6.20
2022-09-27T02:52:35.245Z,6.30
2022-09-27T02:55:17.976Z,6.30
2022-09-27T02:57:56.924Z,6.40
2022-09-27T03:00:31.308Z,6.30
2022-09-27T03:03:08.628Z,6.30
2022-09-27T03:05:40.527Z,6.30
2022-09-27T03:08:07.899Z,6.30
2022-09-27T03:10:35.246Z,6.30
2022-09-27T03:13:02.407Z,6.30
2022-09-27T03:15:29.211Z,6.20
2022-09-27T03:17:56.635Z,6.20
2022-09-27T03:20:24.690Z,6.20
2022-09-27T03:22:51.450Z,6.10
2022-09-27T03:25:19.019Z,6.20
2022-09-27T03:27:45.808Z,6.20
2022-09-27T03:30:14.160Z,6.40
2022-09-27T03:32:44.126Z,6.30
2022-09-27T03:35:11.147Z,6.30
2022-09-27T03:37:39.552Z,6.30
2022-09-27T03:40:07.600Z,6.30
2022-09-27T03:42:34.377Z,6.30
2022-09-27T03:45:01.172Z,6.40
2022-09-27T03:47:28.493Z,6.40
2022-09-27T03:49:55.235Z,6.30
2022-09-27T03:52:22.098Z,6.40
2022-09-27T03:54:50.809Z,6.50
2022-09-27T03:57:18.584Z,6.60
2022-09-27T03:59:46.383Z,6.50
2022-09-27T04:02:13.760Z,6.60
2022-09-27T04:04:40.521Z,6.60
2022-09-27T04:07:09.640Z,6.60
2022-09-27T04:09:39.981Z,6.80
2022-09-27T04:12:10.552Z,6.80
2022-09-27T04:14:38.179Z,6.70
2022-09-27T04:17:05.103Z,6.60
2022-09-27T04:19:31.915Z,6.60
2022-09-27T04:21:59.325Z,6.70
2022-09-27T04:24:26.052Z,6.70
2022-09-27T04:26:53.015Z,6.70
2022-09-27T04:29:21.906Z,6.60
2022-09-27T04:31:48.644Z,6.60
2022-09-27T04:34:15.536Z,6.50
2022-09-27T04:36:42.888Z,6.50
2022-09-27T04:39:10.400Z,6.50
2022-09-27T04:41:37.158Z,6.30
2022-09-27T04:44:04.573Z,6.30
2022-09-27T04:46:33.130Z,6.20
2022-09-27T04:49:00.712Z,6.10
2022-09-27T04:51:28.461Z,6.20
2022-09-27T04:53:56.073Z,6.20
2022-09-27T04:56:22.806Z,6.20
2022-09-27T04:58:50.155Z,6.20
2022-09-27T05:01:16.902Z,6.10
2022-09-27T05:03:44.980Z,6.30
2022-09-27T05:06:12.423Z,6.30
2022-09-27T05:08:39.159Z,6.30
2022-09-27T05:11:05.925Z,6.50
2022-09-27T05:13:33.286Z,6.50
2022-09-27T05:16:03.342Z,6.60
2022-09-27T05:18:30.089Z,6.50
2022-09-27T05:20:58.767Z,6.50
2022-09-27T05:23:25.791Z,6.50
2022-09-27T05:25:52.492Z,6.50
2022-09-27T05:28:19.830Z,6.50
2022-09-27T05:30:46.605Z,6.40
2022-09-27T05:33:13.374Z,6.40
2022-09-27T05:35:44.605Z,6.40
2022-09-27T05:38:13.868Z,6.30
2022-09-27T05:40:42.642Z,6.50
2022-09-27T05:43:09.832Z,6.40
2022-09-27T05:45:36.623Z,6.40
2022-09-27T05:48:04.479Z,6.30
2022-09-27T05:50:31.312Z,6.40
2022-09-27T05:52:58.061Z,6.40
2022-09-27T05:55:26.749Z,6.50
2022-09-27T05:57:57.753Z,6.40
2022-09-27T06:00:25.092Z,6.40
2022-09-27T06:02:56.611Z,6.40
2022-09-27T06:05:24.208Z,6.40
2022-09-27T06:07:52.299Z,6.40
2022-09-27T06:10:20.200Z,6.40
2022-09-27T06:12:48.312Z,6.50
2022-09-27T06:15:15.206Z,6.40
2022-09-27T06:17:42.669Z,6.40
2022-09-27T06:20:10.439Z,6.40
2022-09-27T06:22:37.378Z,6.50
2022-09-27T06:25:05.699Z,6.50
2022-09-27T06:27:32.583Z,6.60
2022-09-27T06:30:00.661Z,6.60
2022-09-27T06:32:28.007Z,6.70
2022-09-27T06:34:54.731Z,6.70
2022-09-27T06:37:25.112Z,6.70
2022-09-27T06:39:52.691Z,6.80
2022-09-27T06:42:19.560Z,6.80
2022-09-27T06:44:50.077Z,7.10
2022-09-27T06:47:19.166Z,7.10
2022-09-27T06:49:45.881Z,7.40
2022-09-27T06:52:12.583Z,7.50
2022-09-27T06:54:40.048Z,7.70
2022-09-27T06:57:06.763Z,7.90
2022-09-27T06:59:33.788Z,8.30
2022-09-27T07:02:01.188Z,7.90
2022-09-27T07:04:29.358Z,8.00
2022-09-27T07:06:56.063Z,7.80
2022-09-27T07:09:23.585Z,7.80
2022-09-27T07:11:50.315Z,7.50
2022-09-27T07:14:17.045Z,7.50
2022-09-27T07:16:45.673Z,7.40
2022-09-27T07:19:12.446Z,7.30
2022-09-27T07:21:40.802Z,7.20
2022-09-27T07:24:08.361Z,7.20
2022-09-27T07:26:35.123Z,7.10
2022-09-27T07:29:01.883Z,7.10
2022-09-27T07:31:29.235Z,7.20
2022-09-27T07:33:56.330Z,7.40
2022-09-27T07:36:23.050Z,7.30
2022-09-27T07:38:51.783Z,7.40
2022-09-27T07:41:18.492Z,7.40
2022-09-27T07:43:45.431Z,7.40
2022-09-27T07:46:13.145Z,7.30
2022-09-27T07:48:39.954Z,7.40
2022-09-27T07:51:07.056Z,7.40
2022-09-27T07:53:34.503Z,7.30
2022-09-27T07:56:02.763Z,7.20
2022-09-27T07:58:29.506Z,7.20
2022-09-27T08:00:59.304Z,7.30
2022-09-27T08:03:26.099Z,7.30
2022-09-27T08:05:52.832Z,7.40
2022-09-27T08:08:20.372Z,7.40
2022-09-27T08:10:47.125Z,7.30
2022-09-27T08:13:16.348Z,7.40
2022-09-27T08:15:43.703Z,7.40
2022-09-27T08:18:10.414Z,7.40
2022-09-27T08:20:37.285Z,7.40
2022-09-27T08:23:04.643Z,7.50
2022-09-27T08:25:31.792Z,7.60
2022-09-27T08:28:00.221Z,7.50
2022-09-27T08:30:28.952Z,7.50
2022-09-27T08:32:56.464Z,7.50
2022-09-27T08:35:23.398Z,7.50
2022-09-27T08:37:55.148Z,7.50
2022-09-27T08:40:23.891Z,7.60
2022-09-27T08:43:02.572Z,7.50
2022-09-27T08:45:37.543Z,7.60
2022-09-27T08:48:05.841Z,7.40
2022-09-27T08:50:39.702Z,7.50
2022-09-27T08:53:20.359Z,7.50
2022-09-27T08:55:49.147Z,7.40
2022-09-27T08:58:23.214Z,7.50
2022-09-27T09:00:53.473Z,7.50
2022-09-27T09:03:24.326Z,7.40
2022-09-27T09:06:02.979Z,7.50
2022-09-27T09:08:42.397Z,7.60
2022-09-27T09:11:19.019Z,7.70
2022-09-27T09:14:21.995Z,7.70
2022-09-27T09:16:55.191Z,7.80
2022-09-27T09:19:47.440Z,7.90
2022-09-27T09:22:28.969Z,8.00
2022-09-27T09:25:10.708Z,8.10
2022-09-27T09:27:43.237Z,8.20
2022-09-27T09:30:20.431Z,7.90
2022-09-27T09:33:02.141Z,8.00
2022-09-27T09:35:36.481Z,8.00
2022-09-27T09:38:09.351Z,8.00
2022-09-27T09:40:42.346Z,8.10
2022-09-27T09:43:16.343Z,8.10
2022-09-27T09:45:48.363Z,8.30
2022-09-27T09:48:23.678Z,8.20
2022-09-27T09:50:53.153Z,7.90
2022-09-27T09:53:25.756Z,8.00
2022-09-27T09:55:59.151Z,8.00
2022-09-27T09:58:31.644Z,7.90
2022-09-27T10:01:10.191Z,8.00
2022-09-27T10:03:38.327Z,7.90
2022-09-27T10:06:06.503Z,7.90
2022-09-27T10:08:33.704Z,7.70
2022-09-27T10:11:00.835Z,7.60
2022-09-27T10:13:33.685Z,7.70
2022-09-27T10:16:04.924Z,7.50
2022-09-27T10:18:33.211Z,7.50
2022-09-27T10:21:05.642Z,7.60
2022-09-27T10:23:33.079Z,7.50
2022-09-27T10:26:02.017Z,7.90
2022-09-27T10:28:37.069Z,7.80
2022-09-27T10:31:06.710Z,7.90
2022-09-27T10:33:34.262Z,7.80
2022-09-27T10:36:02.665Z,8.00
2022-09-27T10:38:31.485Z,8.30
2022-09-27T10:41:15.789Z,8.00
2022-09-27T10:43:43.191Z,8.20
2022-09-27T10:46:15.977Z,8.10
2022-09-27T10:48:43.340Z,8.00
2022-09-27T10:51:24.876Z,8.00
2022-09-27T10:53:52.460Z,8.50
2022-09-27T10:56:26.045Z,8.60
2022-09-27T10:58:54.384Z,8.40
2022-09-27T11:01:21.972Z,8.70
2022-09-27T11:03:51.426Z,8.80
2022-09-27T11:06:27.759Z,8.80
2022-09-27T11:08:55.881Z,8.40
2022-09-27T11:11:25.661Z,8.70
2022-09-27T11:14:00.707Z,8.50
2022-09-27T11:16:41.928Z,8.70
2022-09-27T11:19:26.501Z,8.90
2022-09-27T11:22:01.292Z,8.60
2022-09-27T11:24:38.446Z,9.10
2022-09-27T11:27:15.646Z,8.50
2022-09-27T11:29:54.008Z,8.90
2022-09-27T11:32:27.792Z,8.90
2022-09-27T11:35:14.644Z,8.50
2022-09-27T11:37:52.379Z,8.90
2022-09-27T11:40:30.544Z,8.60
2022-09-27T11:43:22.295Z,8.60
2022-09-27T11:46:27.583Z,8.00
2022-09-27T11:49:20.773Z,7.70
2022-09-27T11:52:01.817Z,7.50
2022-09-27T11:54:46.420Z,7.40
2022-09-27T11:57:20.910Z,7.20
2022-09-27T12:00:03.900Z,7.10
2022-09-27T12:03:04.247Z,7.10
2022-09-27T12:05:38.243Z,7.00
2022-09-27T12:08:19.971Z,7.00
2022-09-27T12:10:52.607Z,7.30
2022-09-27T12:13:32.986Z,7.20
2022-09-27T12:16:01.499Z,7.20
2022-09-27T12:18:31.582Z,7.20
2022-09-27T12:21:00.895Z,7.20
2022-09-27T12:23:39.016Z,7.20
2022-09-27T12:26:12.319Z,7.20
2022-09-27T12:28:46.388Z,7.40
2022-09-27T12:34:19.573Z,7.50
2022-09-27T12:36:53.335Z,7.50
2022-09-27T12:39:25.673Z,7.70
2022-09-27T12:42:00.091Z,7.40
2022-09-27T12:44:28.084Z,7.30
2022-09-27T12:47:07.523Z,7.10
2022-09-27T12:49:46.314Z,7.50
2022-09-27T12:52:16.996Z,7.30
2022-09-27T12:55:04.924Z,7.50
2022-09-27T12:57:43.663Z,7.50
2022-09-27T13:00:16.978Z,7.60
2022-09-27T13:03:17.204Z,7.90
2022-09-27T13:06:17.885Z,7.30
2022-09-27T13:09:00.945Z,8.10
2022-09-27T13:11:42.074Z,8.00
2022-09-27T13:14:19.736Z,8.20
2022-09-27T13:16:48.060Z,8.20
2022-09-27T13:19:40.411Z,8.50
2022-09-27T13:22:09.345Z,8.70
2022-09-27T13:24:45.032Z,9.00
2022-09-27T13:27:38.387Z,8.70
2022-09-27T13:30:47.411Z,8.50
2022-09-27T13:33:44.056Z,8.60
2022-09-27T13:36:29.121Z,8.70
2022-09-27T13:39:06.554Z,8.60
2022-09-27T13:41:54.448Z,8.70
2022-09-27T13:44:31.091Z,8.90
2022-09-27T13:47:02.146Z,9.00
2022-09-27T13:49:36.148Z,9.30
2022-09-27T13:52:14.619Z,9.10
2022-09-27T13:54:51.425Z,9.00
2022-09-27T13:57:46.413Z,9.30
2022-09-27T14:00:17.812Z,9.30
2022-09-27T14:02:54.282Z,9.60
2022-09-27T14:05:27.275Z,10.10
2022-09-27T14:07:56.464Z,10.10
2022-09-27T14:10:24.304Z,9.90
2022-09-27T14:12:52.985Z,9.90
2022-09-27T14:15:23.622Z,9.90
2022-09-27T14:17:51.301Z,9.50
2022-09-27T14:20:34.935Z,9.70
2022-09-27T14:23:03.325Z,9.30
2022-09-27T14:25:30.644Z,9.70
2022-09-27T14:27:57.645Z,9.50
2022-09-27T14:30:27.487Z,9.30
2022-09-27T14:32:56.567Z,9.50
2022-09-27T14:35:24.930Z,9.70
2022-09-27T14:37:53.502Z,9.50
2022-09-27T14:40:22.407Z,9.40
2022-09-27T14:42:52.586Z,9.00
2022-09-27T14:45:22.078Z,9.10
2022-09-27T14:47:50.127Z,9.20
2022-09-27T14:50:19.997Z,9.30
2022-09-27T14:52:47.315Z,9.30
2022-09-27T14:55:17.478Z,9.10
2022-09-27T14:57:47.495Z,9.30
2022-09-27T15:00:21.623Z,9.30
2022-09-27T15:02:50.207Z,9.00
2022-09-27T15:05:19.884Z,9.00
2022-09-27T15:07:47.120Z,9.00
2022-09-27T15:10:18.669Z,9.10
2022-09-27T15:12:48.356Z,9.10
2022-09-27T15:15:15.987Z,9.00
2022-09-27T15:17:43.842Z,9.00
2022-09-27T15:20:23.711Z,9.00
2022-09-27T15:22:50.996Z,9.00
2022-09-27T15:25:24.721Z,9.00
2022-09-27T15:27:54.279Z,8.90
2022-09-27T15:30:29.918Z,8.90
2022-09-27T15:32:57.333Z,8.80
2022-09-27T15:35:31.409Z,8.80
2022-09-27T15:38:26.010Z,8.90
2022-09-27T15:41:13.307Z,8.90
2022-09-27T15:43:43.203Z,8.90
2022-09-27T15:46:34.714Z,8.80
2022-09-27T15:49:22.217Z,8.90
2022-09-27T15:51:50.996Z,8.90
2022-09-27T15:54:19.203Z,8.80
2022-09-27T15:56:48.541Z,8.80
2022-09-27T15:59:21.467Z,8.80
2022-09-27T16:01:48.389Z,8.70
2022-09-27T16:04:15.284Z,8.70
2022-09-27T16:06:42.769Z,8.70
2022-09-27T16:09:14.606Z,8.70
2022-09-27T16:11:41.407Z,8.70
2022-09-27T16:14:10.317Z,8.60
2022-09-27T16:16:39.273Z,8.60
2022-09-27T16:19:05.894Z,8.50
2022-09-27T16:21:33.220Z,8.50
2022-09-27T16:24:04.041Z,8.40
2022-09-27T16:26:33.361Z,8.30
2022-09-27T16:29:00.151Z,8.10
2022-09-27T16:31:28.555Z,7.90
2022-09-27T16:33:55.799Z,7.70
2022-09-27T16:36:22.543Z,7.50
2022-09-27T16:38:50.081Z,7.40
2022-09-27T16:41:17.848Z,7.30
2022-09-27T16:43:44.674Z,7.30
2022-09-27T16:46:12.120Z,7.20
2022-09-27T16:48:41.347Z,7.20
2022-09-27T16:51:11.927Z,7.20
2022-09-27T16:53:41.317Z,7.20
2022-09-27T16:56:08.079Z,7.20
2022-09-27T16:58:34.940Z,7.30
2022-09-27T17:01:02.478Z,7.30
2022-09-27T17:03:29.245Z,7.20
2022-09-27T17:06:01.158Z,7.20
2022-09-27T17:08:28.504Z,7.20
2022-09-27T17:10:55.364Z,7.10
2022-09-27T17:13:22.205Z,7.20
2022-09-27T17:15:49.587Z,7.10
2022-09-27T17:18:16.347Z,7.20
2022-09-27T17:20:43.079Z,7.10
2022-09-27T17:23:11.760Z,7.10
2022-09-27T17:25:38.492Z,7.10
2022-09-27T17:28:05.187Z,7.00
2022-09-27T17:30:32.566Z,7.00
2022-09-27T17:32:59.279Z,7.00
2022-09-27T17:35:26.071Z,7.00
2022-09-27T17:37:53.454Z,7.00
2022-09-27T17:40:21.558Z,7.00
2022-09-27T17:42:48.593Z,7.00
2022-09-27T17:45:16.148Z,7.00
2022-09-27T17:47:45.669Z,6.90
2022-09-27T17:50:12.424Z,7.00
2022-09-27T17:52:39.754Z,6.90
2022-09-27T17:55:07.150Z,6.90
2022-09-27T17:57:35.424Z,6.90
2022-09-27T18:00:04.009Z,6.90
2022-09-27T18:02:30.845Z,6.80
2022-09-27T18:04:57.677Z,6.90
2022-09-27T18:07:25.135Z,6.80
2022-09-27T18:09:51.888Z,6.80
2022-09-27T18:12:18.629Z,6.80
2022-09-27T18:14:47.348Z,6.80
2022-09-27T18:17:14.222Z,6.80
2022-09-27T18:19:40.957Z,6.80
2022-09-27T18:22:08.294Z,6.70
2022-09-27T18:24:35.054Z,6.70
2022-09-27T18:27:01.850Z,6.70
2022-09-27T18:29:29.232Z,6.70
2022-09-27T18:32:00.299Z,6.60
2022-09-27T18:34:27.215Z,6.60
2022-09-27T18:36:54.578Z,6.70
2022-09-27T18:39:21.288Z,6.70
2022-09-27T18:41:48.057Z,6.70
2022-09-27T18:44:16.330Z,6.60
2022-09-27T18:46:43.347Z,6.70
2022-09-27T18:49:13.498Z,6.70
2022-09-27T18:51:42.480Z,6.70
2022-09-27T18:54:14.338Z,6.70
2022-09-27T18:56:41.741Z,6.70
2022-09-27T18:59:09.695Z,6.70
2022-09-27T19:01:39.165Z,6.70
2022-09-27T19:04:07.001Z,6.70
2022-09-27T19:06:36.149Z,6.70
2022-09-27T19:09:03.708Z,6.60
2022-09-27T19:11:31.712Z,6.60
2022-09-27T19:13:58.875Z,6.60
2022-09-27T19:16:28.240Z,6.60
2022-09-27T19:18:55.770Z,6.50
2022-09-27T19:21:24.355Z,6.50
2022-09-27T19:23:52.832Z,6.60
2022-09-27T19:26:21.290Z,6.50
2022-09-27T19:28:48.408Z,6.60
2022-09-27T19:31:17.119Z,6.50
2022-09-27T19:33:44.690Z,6.50
2022-09-27T19:36:12.850Z,6.60
2022-09-27T19:38:40.404Z,6.50
2022-09-27T19:41:10.550Z,6.50
2022-09-27T19:43:37.392Z,6.50
2022-09-27T19:46:04.921Z,6.50
2022-09-27T19:48:32.659Z,6.40
2022-09-27T19:51:00.748Z,6.40
2022-09-27T19:53:32.016Z,6.40
2022-09-27T19:56:00.457Z,6.40
2022-09-27T19:58:29.871Z,6.40
2022-09-27T20:01:01.616Z,6.40
2022-09-27T20:03:29.682Z,6.40
2022-09-27T20:05:57.472Z,6.40
2022-09-27T20:08:24.630Z,6.40
2022-09-27T20:10:56.287Z,6.40
2022-09-27T20:13:24.186Z,6.40
2022-09-27T20:15:53.521Z,6.40
2022-09-27T20:18:20.820Z,6.40
2022-09-27T20:20:47.636Z,6.40
2022-09-27T20:23:14.976Z,6.40
2022-09-27T20:25:43.209Z,6.40
2022-09-27T20:28:10.264Z,6.40
2022-09-27T20:30:37.614Z,6.30
2022-09-27T20:33:05.732Z,6.30
2022-09-27T20:35:32.479Z,6.30
2022-09-27T20:38:00.059Z,6.30
2022-09-27T20:40:26.871Z,6.30
2022-09-27T20:42:53.595Z,6.30
2022-09-27T20:45:21.076Z,6.30
2022-09-27T20:47:47.835Z,6.30
2022-09-27T20:50:16.059Z,6.30
2022-09-27T20:52:43.379Z,6.30
2022-09-27T20:55:10.355Z,6.30
2022-09-27T20:57:56.549Z,6.30
2022-09-27T21:00:24.416Z,6.30
2022-09-27T21:02:51.201Z,6.30
2022-09-27T21:05:19.267Z,6.20
2022-09-27T21:07:46.634Z,6.20
2022-09-27T21:10:13.369Z,6.20
2022-09-27T21:12:40.086Z,6.20
2022-09-27T21:15:08.500Z,6.20
2022-09-27T21:17:35.232Z,6.10
2022-09-27T21:20:02.306Z,6.10
2022-09-27T21:22:30.985Z,6.10
2022-09-27T21:24:57.711Z,6.10
2022-09-27T21:27:24.447Z,6.10
2022-09-27T21:29:51.786Z,6.00
2022-09-27T21:32:18.501Z,6.00
2022-09-27T21:34:45.215Z,6.00
2022-09-27T21:37:12.548Z,6.00
2022-09-27T21:39:40.635Z,6.00
2022-09-27T21:42:07.447Z,5.90
2022-09-27T21:44:34.786Z,5.80
2022-09-27T21:47:01.557Z,5.70
2022-09-27T21:49:28.345Z,5.80
2022-09-27T21:51:55.668Z,5.60
2022-09-27T21:54:22.390Z,5.60
2022-09-27T21:56:50.429Z,5.50
2022-09-27T21:59:17.851Z,5.50
2022-09-27T22:01:45.984Z,5.60
2022-09-27T22:04:12.830Z,5.40
2022-09-27T22:06:40.522Z,5.60
2022-09-27T22:09:08.781Z,5.60
2022-09-27T22:11:38.153Z,5.60
2022-09-27T22:14:06.840Z,5.60
2022-09-27T22:16:33.649Z,5.70
2022-09-27T22:19:00.661Z,5.60
2022-09-27T22:21:30.127Z,5.60
2022-09-27T22:23:58.393Z,5.60
2022-09-27T22:26:27.851Z,5.50
2022-09-27T22:28:55.882Z,5.60
2022-09-27T22:31:24.020Z,5.40
2022-09-27T22:33:52.020Z,5.30
2022-09-27T22:36:19.536Z,5.30
2022-09-27T22:38:46.302Z,5.30
2022-09-27T22:41:13.062Z,5.30
2022-09-27T22:43:40.576Z,5.30
2022-09-27T22:46:07.812Z,5.10
2022-09-27T22:48:36.463Z,5.10
2022-09-27T22:51:04.605Z,5.20
2022-09-27T22:53:31.980Z,5.20
2022-09-27T22:56:03.265Z,5.20
2022-09-27T22:58:32.328Z,5.10
2022-09-27T23:00:59.566Z,5.10
2022-09-27T23:03:26.348Z,5.00
2022-09-27T23:06:00.942Z,5.10
2022-09-27T23:08:27.744Z,5.10
2022-09-27T23:11:01.165Z,5.00
2022-09-27T23:13:30.556Z,4.90
2022-09-27T23:16:00.844Z,4.90
2022-09-27T23:18:27.888Z,4.90
2022-09-27T23:20:59.319Z,4.80
2022-09-27T23:23:26.708Z,4.80
2022-09-27T23:25:58.514Z,4.80
2022-09-27T23:28:25.561Z,4.60
2022-09-27T23:30:52.964Z,4.60
2022-09-27T23:33:19.691Z,4.70
2022-09-27T23:35:46.403Z,4.70
2022-09-27T23:38:15.094Z,4.70
2022-09-27T23:40:41.993Z,4.60
2022-09-27T23:43:08.773Z,4.60
2022-09-27T23:45:36.131Z,4.60
2022-09-27T23:48:02.923Z,4.60
2022-09-27T23:50:29.688Z,4.50
2022-09-27T23:52:56.990Z,4.60
2022-09-27T23:55:25.132Z,4.60
2022-09-27T23:57:51.865Z,4.40
